Time,TemperatureF,DewpointF,PressureIn,WindDirection,WindDirectionDegrees,WindSpeedMPH,WindSpeedGustMPH,Humidity,HourlyPrecipIn,Conditions,Clouds,dailyrainin,SolarRadiationWatts/m^2,SoftwareType,DateUTC
2013-05-07 00:01:00,75.3,71.8,29.88,North,-999,0.0,0.0,89,0.00,,,-99.99,0,WeatherLink 5.4,2013-05-07 04:01:00,
2013-05-07 00:02:00,75.3,71.8,29.88,North,-999,0.0,0.0,89,0.00,,,-99.99,0,WeatherLink 5.4,2013-05-07 04:02:00,
2013-05-07 00:03:00,75.3,71.8,29.88,North,-999,0.0,0.0,89,0.00,,,-99.99,0,WeatherLink 5.4,2013-05-07 04:03:00,
2013-05-07 00:05:00,75.3,71.8,29.88,North,-999,0.0,0.0,89,0.00,,,-99.99,0,WeatherLink 5.4,2013-05-07 04:05:00,
2013-05-07 00:11:00,75.1,71.6,29.87,North,-999,0.0,0.0,89,0.00,,,-99.99,0,WeatherLink 5.4,2013-05-07 04:11:00,
2013-05-07 00:16:00,75.1,71.6,29.87,North,-999,0.0,0.0,89,0.00,,,-99.99,0,WeatherLink 5.4,2013-05-07 04:16:00,
2013-05-07 00:22:00,75.1,71.6,29.87,North,-999,0.0,0.0,89,0.00,,,-99.99,0,WeatherLink 5.4,2013-05-07 04:22:00,
2013-05-07 00:28:00,75.1,71.6,29.86,North,-999,0.0,0.0,89,0.00,,,-99.99,0,WeatherLink 5.4,2013-05-07 04:28:00,
2013-05-07 00:33:00,75.1,72.0,29.86,North,-999,0.0,0.0,90,0.00,,,-99.99,0,WeatherLink 5.4,2013-05-07 04:33:00,
2013-05-07 00:38:00,75.1,72.0,29.86,North,-999,0.0,0.0,90,0.00,,,-99.99,0,WeatherLink 5.4,2013-05-07 04:38:00,
2013-05-07 00:45:00,75.1,72.0,29.86,North,-999,0.0,0.0,90,0.00,,,-99.99,0,WeatherLink 5.4,2013-05-07 04:45:00,
2013-05-07 00:51:00,74.9,71.8,29.86,North,-999,0.0,0.0,90,0.00,,,-99.99,0,WeatherLink 5.4,2013-05-07 04:51:00,
2013-05-07 00:56:00,74.9,71.8,29.86,North,-999,0.0,0.0,90,0.00,,,-99.99,0,WeatherLink 5.4,2013-05-07 04:56:00,
2013-05-07 01:02:00,74.9,71.8,29.86,North,-999,0.0,0.0,90,0.00,,,-99.99,0,WeatherLink 5.4,2013-05-07 05:02:00,
2013-05-07 01:07:00,74.9,71.8,29.86,North,-999,0.0,0.0,90,0.00,,,-99.99,0,WeatherLink 5.4,2013-05-07 05:07:00,
2013-05-07 01:12:00,74.9,71.8,29.86,North,-999,0.0,0.0,90,0.00,,,-99.99,0,WeatherLink 5.4,2013-05-07 05:12:00,
2013-05-07 01:18:00,74.9,71.8,29.86,North,-999,0.0,0.0,90,0.00,,,-99.99,0,WeatherLink 5.4,2013-05-07 05:18:00,
2013-05-07 01:24:00,74.9,71.8,29.85,North,-999,0.0,0.0,90,0.00,,,-99.99,0,WeatherLink 5.4,2013-05-07 05:24:00,
2013-05-07 01:29:00,74.7,71.6,29.85,North,-999,0.0,0.0,90,0.00,,,-99.99,0,WeatherLink 5.4,2013-05-07 05:29:00,
2013-05-07 01:35:00,74.7,71.9,29.85,North,-999,0.0,0.0,91,0.00,,,-99.99,0,WeatherLink 5.4,2013-05-07 05:35:00,
2013-05-07 01:41:00,74.7,71.9,29.84,North,-999,0.0,0.0,91,0.00,,,-99.99,0,WeatherLink 5.4,2013-05-07 05:41:00,
2013-05-07 01:47:00,74.7,71.9,29.84,North,-999,0.0,0.0,91,0.00,,,-99.99,0,WeatherLink 5.4,2013-05-07 05:47:00,
2013-05-07 01:52:00,74.7,71.9,29.84,North,-999,0.0,0.0,91,0.00,,,-99.99,0,WeatherLink 5.4,2013-05-07 05:52:00,
2013-05-07 01:58:00,74.6,71.8,29.83,North,-999,0.0,0.0,91,0.00,,,-99.99,0,WeatherLink 5.4,2013-05-07 05:58:00,
2013-05-07 02:04:00,74.6,71.8,29.83,North,-999,0.0,0.0,91,0.00,,,-99.99,0,WeatherLink 5.4,2013-05-07 06:04:00,
2013-05-07 02:09:00,74.6,71.8,29.83,North,-999,0.0,0.0,91,0.00,,,-99.99,0,WeatherLink 5.4,2013-05-07 06:09:00,
2013-05-07 02:15:00,74.6,71.8,29.83,North,-999,0.0,0.0,91,0.00,,,-99.99,0,WeatherLink 5.4,2013-05-07 06:15:00,
2013-05-07 02:21:00,74.6,71.8,29.83,North,-999,0.0,0.0,91,0.00,,,-99.99,0,WeatherLink 5.4,2013-05-07 06:21:00,
2013-05-07 02:26:00,74.6,71.8,29.83,North,-999,0.0,0.0,91,0.00,,,-99.99,0,WeatherLink 5.4,2013-05-07 06:26:00,
2013-05-07 02:32:00,74.4,71.6,29.83,North,-999,0.0,0.0,91,0.00,,,-99.99,0,WeatherLink 5.4,2013-05-07 06:32:00,
2013-05-07 02:38:00,74.4,71.6,29.83,North,-999,0.0,0.0,91,0.00,,,-99.99,0,WeatherLink 5.4,2013-05-07 06:38:00,
2013-05-07 02:44:00,74.4,71.6,29.83,North,-999,0.0,0.0,91,0.00,,,-99.99,0,WeatherLink 5.4,2013-05-07 06:44:00,
2013-05-07 02:50:00,74.4,71.6,29.83,North,-999,0.0,0.0,91,0.00,,,-99.99,0,WeatherLink 5.4,2013-05-07 06:50:00,
2013-05-07 02:55:00,74.4,71.6,29.82,North,-999,0.0,0.0,91,0.00,,,-99.99,0,WeatherLink 5.4,2013-05-07 06:55:00,
2013-05-07 03:01:00,74.4,71.9,29.82,North,-999,0.0,0.0,92,0.00,,,-99.99,0,WeatherLink 5.4,2013-05-07 07:01:00,
2013-05-07 03:06:00,74.4,71.9,29.82,North,-999,0.0,0.0,92,0.00,,,-99.99,0,WeatherLink 5.4,2013-05-07 07:06:00,
2013-05-07 03:12:00,74.4,71.9,29.82,North,-999,0.0,0.0,92,0.00,,,-99.99,0,WeatherLink 5.4,2013-05-07 07:12:00,
2013-05-07 03:17:00,74.4,71.9,29.82,North,-999,0.0,0.0,92,0.00,,,-99.99,0,WeatherLink 5.4,2013-05-07 07:17:00,
2013-05-07 03:23:00,74.4,71.9,29.82,North,-999,0.0,0.0,92,0.00,,,-99.99,0,WeatherLink 5.4,2013-05-07 07:23:00,
2013-05-07 03:28:00,74.2,71.7,29.82,North,-999,0.0,0.0,92,0.00,,,-99.99,0,WeatherLink 5.4,2013-05-07 07:28:00,
2013-05-07 03:33:00,74.2,71.7,29.82,North,-999,0.0,0.0,92,0.00,,,-99.99,0,WeatherLink 5.4,2013-05-07 07:33:00,
2013-05-07 03:40:00,74.4,71.9,29.82,North,-999,0.0,0.0,92,0.00,,,-99.99,0,WeatherLink 5.4,2013-05-07 07:40:00,
2013-05-07 03:46:00,74.4,71.9,29.82,North,-999,0.0,0.0,92,0.00,,,-99.99,0,WeatherLink 5.4,2013-05-07 07:46:00,
2013-05-07 03:51:00,74.4,71.9,29.82,North,-999,0.0,0.0,92,0.00,,,-99.99,0,WeatherLink 5.4,2013-05-07 07:51:00,
2013-05-07 03:56:00,74.2,71.7,29.82,North,-999,0.0,0.0,92,0.00,,,-99.99,0,WeatherLink 5.4,2013-05-07 07:56:00,
2013-05-07 04:02:00,74.2,71.7,29.82,North,-999,0.0,0.0,92,0.00,,,-99.99,0,WeatherLink 5.4,2013-05-07 08:02:00,
2013-05-07 04:07:00,74.2,71.7,29.82,North,-999,0.0,0.0,92,0.00,,,-99.99,0,WeatherLink 5.4,2013-05-07 08:07:00,
2013-05-07 04:13:00,74.2,71.7,29.82,North,-999,0.0,0.0,92,0.00,,,-99.99,0,WeatherLink 5.4,2013-05-07 08:13:00,
2013-05-07 04:18:00,74.2,71.7,29.82,North,-999,0.0,0.0,92,0.00,,,-99.99,0,WeatherLink 5.4,2013-05-07 08:18:00,
2013-05-07 04:23:00,74.2,71.7,29.82,North,-999,0.0,0.0,92,0.00,,,-99.99,0,WeatherLink 5.4,2013-05-07 08:23:00,
2013-05-07 04:28:00,74.0,71.5,29.81,North,-999,0.0,0.0,92,0.00,,,-99.99,0,WeatherLink 5.4,2013-05-07 08:28:00,
2013-05-07 04:34:00,74.0,71.5,29.81,North,-999,0.0,0.0,92,0.00,,,-99.99,0,WeatherLink 5.4,2013-05-07 08:34:00,
2013-05-07 04:39:00,74.0,71.5,29.82,North,-999,0.0,0.0,92,0.00,,,-99.99,0,WeatherLink 5.4,2013-05-07 08:39:00,
2013-05-07 04:46:00,74.0,71.5,29.82,North,-999,0.0,0.0,92,0.00,,,-99.99,0,WeatherLink 5.4,2013-05-07 08:46:00,
2013-05-07 04:51:00,73.9,71.4,29.82,North,-999,0.0,0.0,92,0.00,,,-99.99,0,WeatherLink 5.4,2013-05-07 08:51:00,
2013-05-07 04:58:00,73.9,71.4,29.83,North,-999,0.0,0.0,92,0.00,,,-99.99,0,WeatherLink 5.4,2013-05-07 08:58:00,
2013-05-07 05:03:00,73.9,71.4,29.83,North,-999,0.0,0.0,92,0.00,,,-99.99,0,WeatherLink 5.4,2013-05-07 09:03:00,
2013-05-07 05:09:00,73.9,71.4,29.83,North,-999,0.0,0.0,92,0.00,,,-99.99,0,WeatherLink 5.4,2013-05-07 09:09:00,
2013-05-07 05:15:00,73.7,71.2,29.83,North,-999,0.0,0.0,92,0.00,,,-99.99,0,WeatherLink 5.4,2013-05-07 09:15:00,
2013-05-07 05:21:00,73.5,71.0,29.83,North,-999,0.0,0.0,92,0.00,,,-99.99,0,WeatherLink 5.4,2013-05-07 09:21:00,
2013-05-07 05:27:00,73.3,70.8,29.84,North,-999,0.0,0.0,92,0.00,,,-99.99,0,WeatherLink 5.4,2013-05-07 09:27:00,
2013-05-07 05:32:00,73.3,70.8,29.84,North,-999,0.0,0.0,92,0.00,,,-99.99,0,WeatherLink 5.4,2013-05-07 09:32:00,
2013-05-07 05:37:00,73.2,70.7,29.84,North,-999,0.0,0.0,92,0.00,,,-99.99,0,WeatherLink 5.4,2013-05-07 09:37:00,
2013-05-07 05:43:00,73.2,70.7,29.85,North,-999,0.0,0.0,92,0.00,,,-99.99,0,WeatherLink 5.4,2013-05-07 09:43:00,
2013-05-07 05:48:00,73.2,70.7,29.85,North,-999,0.0,0.0,92,0.00,,,-99.99,0,WeatherLink 5.4,2013-05-07 09:48:00,
2013-05-07 05:53:00,73.2,70.7,29.85,North,-999,0.0,0.0,92,0.00,,,-99.99,5,WeatherLink 5.4,2013-05-07 09:53:00,
2013-05-07 05:59:00,73.2,70.7,29.85,North,-999,0.0,0.0,92,0.00,,,-99.99,7,WeatherLink 5.4,2013-05-07 09:59:00,
2013-05-07 06:04:00,73.0,70.5,29.85,North,-999,0.0,0.0,92,0.00,,,-99.99,9,WeatherLink 5.4,2013-05-07 10:04:00,
2013-05-07 06:10:00,73.0,70.5,29.86,North,-999,0.0,0.0,92,0.00,,,-99.99,12,WeatherLink 5.4,2013-05-07 10:10:00,
2013-05-07 06:16:00,73.0,70.5,29.86,North,-999,0.0,0.0,92,0.00,,,-99.99,16,WeatherLink 5.4,2013-05-07 10:16:00,
2013-05-07 06:22:00,73.0,70.5,29.86,North,-999,0.0,0.0,92,0.00,,,-99.99,21,WeatherLink 5.4,2013-05-07 10:22:00,
2013-05-07 06:27:00,73.1,70.6,29.86,North,-999,0.0,0.0,92,0.00,,,-99.99,25,WeatherLink 5.4,2013-05-07 10:27:00,
2013-05-07 06:32:00,73.2,70.7,29.86,North,-999,0.0,0.0,92,0.00,,,-99.99,31,WeatherLink 5.4,2013-05-07 10:32:00,
2013-05-07 06:38:00,73.2,71.1,29.86,North,-999,0.0,0.0,93,0.00,,,-99.99,33,WeatherLink 5.4,2013-05-07 10:38:00,
2013-05-07 06:43:00,73.2,71.1,29.87,North,-999,0.0,0.0,93,0.00,,,-99.99,42,WeatherLink 5.4,2013-05-07 10:43:00,
2013-05-07 06:48:00,73.2,71.1,29.87,North,-999,0.0,0.0,93,0.00,,,-99.99,49,WeatherLink 5.4,2013-05-07 10:48:00,
2013-05-07 06:54:00,73.3,71.2,29.87,North,-999,0.0,0.0,93,0.00,,,-99.99,69,WeatherLink 5.4,2013-05-07 10:54:00,
2013-05-07 07:00:00,73.3,71.2,29.87,North,-999,0.0,0.0,93,0.00,,,-99.99,76,WeatherLink 5.4,2013-05-07 11:00:00,
2013-05-07 07:05:00,73.5,71.4,29.87,North,-999,0.0,0.0,93,0.00,,,-99.99,95,WeatherLink 5.4,2013-05-07 11:05:00,
2013-05-07 07:10:00,73.7,71.5,29.88,North,-999,0.0,0.0,93,0.00,,,-99.99,157,WeatherLink 5.4,2013-05-07 11:10:00,
2013-05-07 07:16:00,73.9,71.7,29.88,North,-999,0.0,0.0,93,0.00,,,-99.99,146,WeatherLink 5.4,2013-05-07 11:16:00,
2013-05-07 07:21:00,74.0,71.8,29.88,North,-999,0.0,0.0,93,0.00,,,-99.99,164,WeatherLink 5.4,2013-05-07 11:21:00,
2013-05-07 07:27:00,74.4,72.2,29.88,North,-999,0.0,0.0,93,0.00,,,-99.99,177,WeatherLink 5.4,2013-05-07 11:27:00,
2013-05-07 07:33:00,74.6,72.4,29.88,North,-999,0.0,0.0,93,0.00,,,-99.99,276,WeatherLink 5.4,2013-05-07 11:33:00,
2013-05-07 07:38:00,74.7,72.5,29.88,North,-999,0.0,0.0,93,0.00,,,-99.99,364,WeatherLink 5.4,2013-05-07 11:38:00,
2013-05-07 07:43:00,75.0,72.8,29.89,North,-999,0.0,0.0,93,0.00,,,-99.99,366,WeatherLink 5.4,2013-05-07 11:43:00,
2013-05-07 07:49:00,75.6,73.4,29.89,North,-999,0.0,0.0,93,0.00,,,-99.99,380,WeatherLink 5.4,2013-05-07 11:49:00,
2013-05-07 07:54:00,76.0,73.5,29.89,North,-999,0.0,0.0,92,0.00,,,-99.99,385,WeatherLink 5.4,2013-05-07 11:54:00,
2013-05-07 08:00:00,76.6,73.8,29.89,North,-999,0.0,0.0,91,0.00,,,-99.99,401,WeatherLink 5.4,2013-05-07 12:00:00,
2013-05-07 08:06:00,77.5,74.0,29.89,North,-999,0.0,0.0,89,0.00,,,-99.99,419,WeatherLink 5.4,2013-05-07 12:06:00,
2013-05-07 08:12:00,78.3,74.1,29.89,North,-999,0.0,0.0,87,0.00,,,-99.99,437,WeatherLink 5.4,2013-05-07 12:12:00,
2013-05-07 08:18:00,79.2,73.2,29.89,North,-999,0.0,0.0,82,0.00,,,-99.99,456,WeatherLink 5.4,2013-05-07 12:18:00,
2013-05-07 08:24:00,80.1,73.4,29.89,North,-999,0.0,0.0,80,0.00,,,-99.99,479,WeatherLink 5.4,2013-05-07 12:24:00,
2013-05-07 08:30:00,81.1,73.2,29.89,North,-999,0.0,0.0,77,0.00,,,-99.99,496,WeatherLink 5.4,2013-05-07 12:30:00,
2013-05-07 08:35:00,81.7,73.0,29.89,East,90,3.0,6.0,75,0.00,,,-99.99,530,WeatherLink 5.4,2013-05-07 12:35:00,
2013-05-07 08:40:00,82.2,73.5,29.90,East,90,3.0,6.0,75,0.00,,,-99.99,544,WeatherLink 5.4,2013-05-07 12:40:00,
2013-05-07 08:45:00,82.6,73.9,29.90,North,-999,0.0,0.0,75,0.00,,,-99.99,552,WeatherLink 5.4,2013-05-07 12:45:00,
2013-05-07 08:51:00,82.7,74.0,29.90,North,-999,0.0,0.0,75,0.00,,,-99.99,591,WeatherLink 5.4,2013-05-07 12:51:00,
2013-05-07 08:56:00,83.0,73.9,29.91,North,-999,0.0,0.0,74,0.00,,,-99.99,620,WeatherLink 5.4,2013-05-07 12:56:00,
2013-05-07 09:02:00,83.4,74.2,29.91,North,-999,0.0,0.0,74,0.00,,,-99.99,653,WeatherLink 5.4,2013-05-07 13:02:00,
2013-05-07 09:07:00,83.8,74.2,29.91,North,-999,0.0,0.0,73,0.00,,,-99.99,695,WeatherLink 5.4,2013-05-07 13:07:00,
2013-05-07 09:12:00,84.1,74.5,29.91,North,-999,0.0,0.0,73,0.00,,,-99.99,688,WeatherLink 5.4,2013-05-07 13:12:00,
2013-05-07 09:18:00,84.5,74.1,29.91,North,-999,0.0,0.0,71,0.00,,,-99.99,709,WeatherLink 5.4,2013-05-07 13:18:00,
2013-05-07 09:24:00,84.6,73.3,29.91,SE,135,4.0,7.0,69,0.00,,,-99.99,709,WeatherLink 5.4,2013-05-07 13:24:00,
2013-05-07 09:30:00,84.5,73.2,29.91,SSE,157,2.0,6.0,69,0.00,,,-99.99,727,WeatherLink 5.4,2013-05-07 13:30:00,
2013-05-07 09:36:00,84.7,73.4,29.91,North,-999,0.0,0.0,69,0.00,,,-99.99,802,WeatherLink 5.4,2013-05-07 13:36:00,
2013-05-07 09:41:00,85.2,73.4,29.91,North,-999,0.0,0.0,68,0.00,,,-99.99,832,WeatherLink 5.4,2013-05-07 13:41:00,
2013-05-07 09:47:00,85.3,73.5,29.91,North,-999,0.0,0.0,68,0.00,,,-99.99,329,WeatherLink 5.4,2013-05-07 13:47:00,
2013-05-07 09:52:00,85.3,73.5,29.91,North,-999,0.0,0.0,68,0.00,,,-99.99,271,WeatherLink 5.4,2013-05-07 13:52:00,
2013-05-07 09:58:00,85.1,73.3,29.91,North,-999,0.0,0.0,68,0.00,,,-99.99,220,WeatherLink 5.4,2013-05-07 13:58:00,
2013-05-07 10:03:00,85.1,73.3,29.91,North,-999,0.0,0.0,68,0.00,,,-99.99,920,WeatherLink 5.4,2013-05-07 14:03:00,
2013-05-07 10:08:00,85.3,73.5,29.91,North,-999,0.0,0.0,68,0.00,,,-99.99,213,WeatherLink 5.4,2013-05-07 14:08:00,
2013-05-07 10:14:00,85.3,73.5,29.91,North,-999,0.0,0.0,68,0.00,,,-99.99,283,WeatherLink 5.4,2013-05-07 14:14:00,
2013-05-07 10:20:00,85.8,73.6,29.91,North,-999,0.0,0.0,67,0.00,,,-99.99,926,WeatherLink 5.4,2013-05-07 14:20:00,
2013-05-07 10:25:00,86.1,72.0,29.90,North,-999,0.0,0.0,63,0.00,,,-99.99,890,WeatherLink 5.4,2013-05-07 14:25:00,
2013-05-07 10:30:00,86.5,72.4,29.90,ESE,112,1.0,6.0,63,0.00,,,-99.99,906,WeatherLink 5.4,2013-05-07 14:30:00,
2013-05-07 10:35:00,86.7,72.6,29.90,North,-999,0.0,0.0,63,0.00,,,-99.99,940,WeatherLink 5.4,2013-05-07 14:35:00,
2013-05-07 10:41:00,86.7,73.1,29.91,North,-999,0.0,0.0,64,0.00,,,-99.99,259,WeatherLink 5.4,2013-05-07 14:41:00,
2013-05-07 10:47:00,86.5,72.9,29.91,North,-999,0.0,0.0,64,0.00,,,-99.99,245,WeatherLink 5.4,2013-05-07 14:47:00,
2013-05-07 10:53:00,86.5,74.2,29.91,North,-999,0.0,0.0,67,0.00,,,-99.99,304,WeatherLink 5.4,2013-05-07 14:53:00,
2013-05-07 10:58:00,86.5,74.7,29.91,North,-999,0.0,0.0,68,0.00,,,-99.99,1059,WeatherLink 5.4,2013-05-07 14:58:00,
2013-05-07 11:03:00,86.9,75.5,29.91,North,-999,0.0,0.0,69,0.00,,,-99.99,1054,WeatherLink 5.4,2013-05-07 15:03:00,
2013-05-07 11:09:00,86.7,75.7,29.91,East,90,3.0,7.0,70,0.00,,,-99.99,1086,WeatherLink 5.4,2013-05-07 15:09:00,
2013-05-07 11:15:00,86.7,75.3,29.90,ENE,67,3.0,8.0,69,0.00,,,-99.99,1140,WeatherLink 5.4,2013-05-07 15:15:00,
2013-05-07 11:21:00,86.5,75.1,29.90,East,90,1.0,6.0,69,0.00,,,-99.99,1036,WeatherLink 5.4,2013-05-07 15:21:00,
2013-05-07 11:27:00,86.4,75.0,29.90,East,90,3.0,7.0,69,0.00,,,-99.99,1232,WeatherLink 5.4,2013-05-07 15:27:00,
2013-05-07 11:33:00,86.3,74.9,29.90,North,-999,0.0,0.0,69,0.00,,,-99.99,1277,WeatherLink 5.4,2013-05-07 15:33:00,
2013-05-07 11:39:00,86.3,74.9,29.90,NNE,22,3.0,7.0,69,0.00,,,-99.99,674,WeatherLink 5.4,2013-05-07 15:39:00,
2013-05-07 11:45:00,85.7,74.4,29.89,ENE,67,1.0,6.0,69,0.00,,,-99.99,625,WeatherLink 5.4,2013-05-07 15:45:00,
2013-05-07 11:50:00,84.9,74.9,29.89,East,90,5.0,14.0,72,0.00,,,-99.99,445,WeatherLink 5.4,2013-05-07 15:50:00,
2013-05-07 11:55:00,84.2,74.6,29.89,East,90,4.0,8.0,73,0.00,,,-99.99,547,WeatherLink 5.4,2013-05-07 15:55:00,
2013-05-07 12:00:00,83.8,74.6,29.89,East,90,2.0,6.0,74,0.00,,,-99.99,450,WeatherLink 5.4,2013-05-07 16:00:00,
2013-05-07 12:06:00,83.6,74.4,29.89,North,-999,0.0,0.0,74,0.00,,,-99.99,421,WeatherLink 5.4,2013-05-07 16:06:00,
2013-05-07 12:12:00,84.0,74.8,29.89,North,-999,0.0,0.0,74,0.00,,,-99.99,1246,WeatherLink 5.4,2013-05-07 16:12:00,
2013-05-07 12:18:00,84.9,75.3,29.89,North,0,2.0,9.0,73,0.00,,,-99.99,470,WeatherLink 5.4,2013-05-07 16:18:00,
2013-05-07 12:24:00,85.3,75.7,29.88,East,90,4.0,12.0,73,0.00,,,-99.99,331,WeatherLink 5.4,2013-05-07 16:24:00,
2013-05-07 12:30:00,84.7,73.8,29.88,North,-999,0.0,0.0,70,0.00,,,-99.99,95,WeatherLink 5.4,2013-05-07 16:30:00,
2013-05-07 12:36:00,84.1,74.5,29.88,North,-999,0.0,0.0,73,0.00,,,-99.99,102,WeatherLink 5.4,2013-05-07 16:36:00,
2013-05-07 12:41:00,83.6,74.8,29.88,North,-999,0.0,0.0,75,0.00,,,-99.99,71,WeatherLink 5.4,2013-05-07 16:41:00,
2013-05-07 12:47:00,83.2,74.8,29.88,ESE,112,2.0,10.0,76,0.00,,,-99.99,18,WeatherLink 5.4,2013-05-07 16:47:00,
2013-05-07 12:52:00,82.9,75.3,29.88,SSE,157,1.0,8.0,78,0.02,,,-99.99,9,WeatherLink 5.4,2013-05-07 16:52:00,
2013-05-07 12:58:00,81.3,74.9,29.89,SE,135,9.0,16.0,81,0.09,,,-99.99,9,WeatherLink 5.4,2013-05-07 16:58:00,
2013-05-07 13:03:00,79.6,74.3,29.89,SE,135,0.0,3.0,84,0.25,,,-99.99,12,WeatherLink 5.4,2013-05-07 17:03:00,
2013-05-07 13:09:00,78.8,74.3,29.91,ESE,112,2.0,10.0,86,0.53,,,-99.99,11,WeatherLink 5.4,2013-05-07 17:09:00,
2013-05-07 13:15:00,78.3,74.1,29.91,North,-999,0.0,0.0,87,0.68,,,-99.99,14,WeatherLink 5.4,2013-05-07 17:15:00,
2013-05-07 13:21:00,77.9,74.1,29.91,North,-999,0.0,0.0,88,0.71,,,-99.99,12,WeatherLink 5.4,2013-05-07 17:21:00,
2013-05-07 13:26:00,77.9,74.4,29.90,North,-999,0.0,0.0,89,0.76,,,-99.99,12,WeatherLink 5.4,2013-05-07 17:26:00,
2013-05-07 13:32:00,77.9,74.7,29.90,North,-999,0.0,0.0,90,0.77,,,-99.99,12,WeatherLink 5.4,2013-05-07 17:32:00,
2013-05-07 13:38:00,78.1,75.3,29.90,North,-999,0.0,0.0,91,0.78,,,-99.99,16,WeatherLink 5.4,2013-05-07 17:38:00,
2013-05-07 13:44:00,78.3,75.5,29.90,North,-999,0.0,0.0,91,0.78,,,-99.99,14,WeatherLink 5.4,2013-05-07 17:44:00,
2013-05-07 13:50:00,77.7,74.5,29.90,North,-999,0.0,0.0,90,0.79,,,-99.99,21,WeatherLink 5.4,2013-05-07 17:50:00,
2013-05-07 13:55:00,77.6,74.8,29.88,North,-999,0.0,0.0,91,0.75,,,-99.99,39,WeatherLink 5.4,2013-05-07 17:55:00,
2013-05-07 14:00:00,77.6,74.8,29.88,North,-999,0.0,0.0,91,0.68,,,-99.99,46,WeatherLink 5.4,2013-05-07 18:00:00,
2013-05-07 14:06:00,77.2,74.4,29.88,North,-999,0.0,0.0,91,0.49,,,-99.99,42,WeatherLink 5.4,2013-05-07 18:06:00,
2013-05-07 14:12:00,76.5,73.7,29.89,North,-999,0.0,0.0,91,0.19,,,-99.99,28,WeatherLink 5.4,2013-05-07 18:12:00,
2013-05-07 14:18:00,76.1,73.6,29.89,North,-999,0.0,0.0,92,0.11,,,-99.99,25,WeatherLink 5.4,2013-05-07 18:18:00,
2013-05-07 14:24:00,76.3,73.8,29.89,North,-999,0.0,0.0,92,0.06,,,-99.99,25,WeatherLink 5.4,2013-05-07 18:24:00,
2013-05-07 14:30:00,76.3,73.8,29.88,North,-999,0.0,0.0,92,0.03,,,-99.99,23,WeatherLink 5.4,2013-05-07 18:30:00,
2013-05-07 14:35:00,76.1,73.6,29.88,North,-999,0.0,0.0,92,0.02,,,-99.99,23,WeatherLink 5.4,2013-05-07 18:35:00,
2013-05-07 14:40:00,76.3,73.8,29.88,North,-999,0.0,0.0,92,0.02,,,-99.99,23,WeatherLink 5.4,2013-05-07 18:40:00,
2013-05-07 14:45:00,76.3,73.8,29.88,North,-999,0.0,0.0,92,0.01,,,-99.99,21,WeatherLink 5.4,2013-05-07 18:45:00,
2013-05-07 14:50:00,76.3,73.8,29.88,North,-999,0.0,0.0,92,0.01,,,-99.99,21,WeatherLink 5.4,2013-05-07 18:50:00,
2013-05-07 14:56:00,76.1,73.6,29.88,North,-999,0.0,0.0,92,0.00,,,-99.99,24,WeatherLink 5.4,2013-05-07 18:56:00,
2013-05-07 15:02:00,76.0,73.5,29.88,North,-999,0.0,0.0,92,0.00,,,-99.99,25,WeatherLink 5.4,2013-05-07 19:02:00,
2013-05-07 15:08:00,76.1,73.6,29.88,North,-999,0.0,0.0,92,0.00,,,-99.99,28,WeatherLink 5.4,2013-05-07 19:08:00,
2013-05-07 15:14:00,76.0,73.8,29.88,North,-999,0.0,0.0,93,0.00,,,-99.99,30,WeatherLink 5.4,2013-05-07 19:14:00,
2013-05-07 15:20:00,76.1,73.9,29.88,North,-999,0.0,0.0,93,0.01,,,-99.99,33,WeatherLink 5.4,2013-05-07 19:20:00,
2013-05-07 15:26:00,76.1,73.9,29.87,North,-999,0.0,0.0,93,0.01,,,-99.99,39,WeatherLink 5.4,2013-05-07 19:26:00,
2013-05-07 15:32:00,76.3,74.1,29.87,North,-999,0.0,0.0,93,0.01,,,-99.99,49,WeatherLink 5.4,2013-05-07 19:32:00,
2013-05-07 15:37:00,76.3,74.1,29.87,North,-999,0.0,0.0,93,0.01,,,-99.99,56,WeatherLink 5.4,2013-05-07 19:37:00,
2013-05-07 15:42:00,76.3,74.1,29.88,North,-999,0.0,0.0,93,0.01,,,-99.99,58,WeatherLink 5.4,2013-05-07 19:42:00,
2013-05-07 15:47:00,76.3,74.1,29.88,North,-999,0.0,0.0,93,0.01,,,-99.99,53,WeatherLink 5.4,2013-05-07 19:47:00,
2013-05-07 15:53:00,76.3,74.1,29.88,North,-999,0.0,0.0,93,0.01,,,-99.99,39,WeatherLink 5.4,2013-05-07 19:53:00,
2013-05-07 15:59:00,76.3,74.1,29.88,North,-999,0.0,0.0,93,0.01,,,-99.99,26,WeatherLink 5.4,2013-05-07 19:59:00,
2013-05-07 16:05:00,76.3,74.1,29.88,North,-999,0.0,0.0,93,0.01,,,-99.99,18,WeatherLink 5.4,2013-05-07 20:05:00,
2013-05-07 16:10:00,76.4,74.2,29.88,North,-999,0.0,0.0,93,0.01,,,-99.99,18,WeatherLink 5.4,2013-05-07 20:10:00,
2013-05-07 16:15:00,76.3,74.1,29.88,North,-999,0.0,0.0,93,0.02,,,-99.99,11,WeatherLink 5.4,2013-05-07 20:15:00,
2013-05-07 16:20:00,76.3,74.1,29.88,North,-999,0.0,0.0,93,0.02,,,-99.99,5,WeatherLink 5.4,2013-05-07 20:20:00,
2013-05-07 16:26:00,76.5,74.3,29.89,North,-999,0.0,0.0,93,0.11,,,-99.99,9,WeatherLink 5.4,2013-05-07 20:26:00,
2013-05-07 16:32:00,76.0,73.8,29.89,North,-999,0.0,0.0,93,0.36,,,-99.99,12,WeatherLink 5.4,2013-05-07 20:32:00,
2013-05-07 16:38:00,75.6,73.4,29.89,North,-999,0.0,0.0,93,0.55,,,-99.99,16,WeatherLink 5.4,2013-05-07 20:38:00,
2013-05-07 16:44:00,75.6,73.4,29.90,North,-999,0.0,0.0,93,0.56,,,-99.99,14,WeatherLink 5.4,2013-05-07 20:44:00,
2013-05-07 16:50:00,75.8,73.6,29.90,North,-999,0.0,0.0,93,0.57,,,-99.99,16,WeatherLink 5.4,2013-05-07 20:50:00,
2013-05-07 16:56:00,75.8,73.6,29.89,North,-999,0.0,0.0,93,0.58,,,-99.99,18,WeatherLink 5.4,2013-05-07 20:56:00,
2013-05-07 17:02:00,75.4,73.2,29.89,North,-999,0.0,0.0,93,0.59,,,-99.99,19,WeatherLink 5.4,2013-05-07 21:02:00,
2013-05-07 17:08:00,75.3,73.1,29.89,North,-999,0.0,0.0,93,0.60,,,-99.99,18,WeatherLink 5.4,2013-05-07 21:08:00,
2013-05-07 17:14:00,75.1,72.9,29.89,North,-999,0.0,0.0,93,0.60,,,-99.99,16,WeatherLink 5.4,2013-05-07 21:14:00,
2013-05-07 17:20:00,74.9,72.7,29.89,North,-999,0.0,0.0,93,0.60,,,-99.99,16,WeatherLink 5.4,2013-05-07 21:20:00,
2013-05-07 17:25:00,74.7,72.5,29.89,North,-999,0.0,0.0,93,0.53,,,-99.99,18,WeatherLink 5.4,2013-05-07 21:25:00,
2013-05-07 17:30:00,74.7,72.5,29.89,North,-999,0.0,0.0,93,0.28,,,-99.99,16,WeatherLink 5.4,2013-05-07 21:30:00,
2013-05-07 17:35:00,74.7,72.5,29.89,North,-999,0.0,0.0,93,0.08,,,-99.99,16,WeatherLink 5.4,2013-05-07 21:35:00,
2013-05-07 17:41:00,74.7,72.5,29.89,North,-999,0.0,0.0,93,0.06,,,-99.99,17,WeatherLink 5.4,2013-05-07 21:41:00,
2013-05-07 17:47:00,74.6,72.8,29.89,North,-999,0.0,0.0,94,0.05,,,-99.99,18,WeatherLink 5.4,2013-05-07 21:47:00,
2013-05-07 17:52:00,74.7,72.9,29.89,North,-999,0.0,0.0,94,0.04,,,-99.99,21,WeatherLink 5.4,2013-05-07 21:52:00,
2013-05-07 17:57:00,74.7,72.9,29.89,North,-999,0.0,0.0,94,0.02,,,-99.99,26,WeatherLink 5.4,2013-05-07 21:57:00,
2013-05-07 18:03:00,74.6,72.4,29.89,North,-999,0.0,0.0,93,0.02,,,-99.99,28,WeatherLink 5.4,2013-05-07 22:03:00,
2013-05-07 18:08:00,74.6,72.4,29.89,North,-999,0.0,0.0,93,0.01,,,-99.99,25,WeatherLink 5.4,2013-05-07 22:08:00,
2013-05-07 18:13:00,74.6,72.4,29.89,North,-999,0.0,0.0,93,0.00,,,-99.99,25,WeatherLink 5.4,2013-05-07 22:13:00,
2013-05-07 18:18:00,74.6,72.4,29.89,North,-999,0.0,0.0,93,0.00,,,-99.99,19,WeatherLink 5.4,2013-05-07 22:18:00,
2013-05-07 18:24:00,74.7,72.9,29.89,North,-999,0.0,0.0,94,0.00,,,-99.99,14,WeatherLink 5.4,2013-05-07 22:24:00,
2013-05-07 18:29:00,74.7,72.9,29.89,North,-999,0.0,0.0,94,0.00,,,-99.99,11,WeatherLink 5.4,2013-05-07 22:29:00,
2013-05-07 18:35:00,74.7,72.9,29.89,North,-999,0.0,0.0,94,0.00,,,-99.99,9,WeatherLink 5.4,2013-05-07 22:35:00,
2013-05-07 18:40:00,74.7,72.9,29.90,North,-999,0.0,0.0,94,0.00,,,-99.99,5,WeatherLink 5.4,2013-05-07 22:40:00,
2013-05-07 18:46:00,74.7,72.9,29.90,North,-999,0.0,0.0,94,0.00,,,-99.99,0,WeatherLink 5.4,2013-05-07 22:46:00,
2013-05-07 18:51:00,74.9,73.1,29.90,North,-999,0.0,0.0,94,0.00,,,-99.99,0,WeatherLink 5.4,2013-05-07 22:51:00,
2013-05-07 18:56:00,74.9,73.1,29.90,North,-999,0.0,0.0,94,0.00,,,-99.99,0,WeatherLink 5.4,2013-05-07 22:56:00,
2013-05-07 19:02:00,74.8,73.0,29.90,North,-999,0.0,0.0,94,0.00,,,-99.99,0,WeatherLink 5.4,2013-05-07 23:02:00,
2013-05-07 19:08:00,74.7,72.9,29.90,North,-999,0.0,0.0,94,0.00,,,-99.99,0,WeatherLink 5.4,2013-05-07 23:08:00,
2013-05-07 19:13:00,74.7,72.9,29.91,North,-999,0.0,0.0,94,0.00,,,-99.99,0,WeatherLink 5.4,2013-05-07 23:13:00,
2013-05-07 19:19:00,74.7,72.9,29.91,North,-999,0.0,0.0,94,0.00,,,-99.99,0,WeatherLink 5.4,2013-05-07 23:19:00,
2013-05-07 19:24:00,74.7,72.9,29.92,North,-999,0.0,0.0,94,0.00,,,-99.99,0,WeatherLink 5.4,2013-05-07 23:24:00,
2013-05-07 19:30:00,74.7,72.9,29.92,North,-999,0.0,0.0,94,0.00,,,-99.99,0,WeatherLink 5.4,2013-05-07 23:30:00,
2013-05-07 19:35:00,74.7,72.9,29.92,North,-999,0.0,0.0,94,0.00,,,-99.99,0,WeatherLink 5.4,2013-05-07 23:35:00,
2013-05-07 19:41:00,74.7,72.9,29.92,North,-999,0.0,0.0,94,0.00,,,-99.99,0,WeatherLink 5.4,2013-05-07 23:41:00,
2013-05-07 19:46:00,74.7,72.9,29.92,North,-999,0.0,0.0,94,0.00,,,-99.99,0,WeatherLink 5.4,2013-05-07 23:46:00,
2013-05-07 19:52:00,74.9,73.1,29.92,North,-999,0.0,0.0,94,0.01,,,-99.99,0,WeatherLink 5.4,2013-05-07 23:52:00,
2013-05-07 19:58:00,74.9,73.1,29.93,North,-999,0.0,0.0,94,0.01,,,-99.99,0,WeatherLink 5.4,2013-05-07 23:58:00,
2013-05-07 20:04:00,75.1,73.3,29.93,North,-999,0.0,0.0,94,0.01,,,-99.99,0,WeatherLink 5.4,2013-05-08 00:04:00,
2013-05-07 20:10:00,75.3,73.5,29.94,North,-999,0.0,0.0,94,0.01,,,-99.99,0,WeatherLink 5.4,2013-05-08 00:10:00,
2013-05-07 20:16:00,75.3,73.5,29.94,North,-999,0.0,0.0,94,0.02,,,-99.99,0,WeatherLink 5.4,2013-05-08 00:16:00,
2013-05-07 20:21:00,75.4,73.6,29.94,North,-999,0.0,0.0,94,0.02,,,-99.99,0,WeatherLink 5.4,2013-05-08 00:21:00,
2013-05-07 20:26:00,75.4,73.6,29.94,North,-999,0.0,0.0,94,0.02,,,-99.99,0,WeatherLink 5.4,2013-05-08 00:26:00,
2013-05-07 20:32:00,75.4,73.6,29.94,North,-999,0.0,0.0,94,0.02,,,-99.99,0,WeatherLink 5.4,2013-05-08 00:32:00,
2013-05-07 20:37:00,75.4,73.6,29.94,North,-999,0.0,0.0,94,0.02,,,-99.99,0,WeatherLink 5.4,2013-05-08 00:37:00,
2013-05-07 20:42:00,75.4,73.6,29.94,North,-999,0.0,0.0,94,0.02,,,-99.99,0,WeatherLink 5.4,2013-05-08 00:42:00,
2013-05-07 20:47:00,75.4,73.6,29.94,North,-999,0.0,0.0,94,0.02,,,-99.99,0,WeatherLink 5.4,2013-05-08 00:47:00,
2013-05-07 20:53:00,75.4,73.6,29.94,North,-999,0.0,0.0,94,0.01,,,-99.99,0,WeatherLink 5.4,2013-05-08 00:53:00,
2013-05-07 20:58:00,75.4,73.6,29.94,North,-999,0.0,0.0,94,0.01,,,-99.99,0,WeatherLink 5.4,2013-05-08 00:58:00,
2013-05-07 21:03:00,75.4,73.6,29.94,North,-999,0.0,0.0,94,0.01,,,-99.99,0,WeatherLink 5.4,2013-05-08 01:03:00,
2013-05-07 21:08:00,75.6,73.8,29.94,North,-999,0.0,0.0,94,0.01,,,-99.99,0,WeatherLink 5.4,2013-05-08 01:08:00,
2013-05-07 21:14:00,75.4,73.6,29.95,North,-999,0.0,0.0,94,0.00,,,-99.99,0,WeatherLink 5.4,2013-05-08 01:14:00,
2013-05-07 21:19:00,75.4,73.6,29.95,North,-999,0.0,0.0,94,0.00,,,-99.99,0,WeatherLink 5.4,2013-05-08 01:19:00,
2013-05-07 21:25:00,75.4,73.6,29.94,North,-999,0.0,0.0,94,0.00,,,-99.99,0,WeatherLink 5.4,2013-05-08 01:25:00,
2013-05-07 21:31:00,75.5,73.7,29.94,North,-999,0.0,0.0,94,0.00,,,-99.99,0,WeatherLink 5.4,2013-05-08 01:31:00,
2013-05-07 21:37:00,75.6,73.8,29.94,North,-999,0.0,0.0,94,0.00,,,-99.99,0,WeatherLink 5.4,2013-05-08 01:37:00,
2013-05-07 21:42:00,75.8,73.9,29.95,North,-999,0.0,0.0,94,0.00,,,-99.99,0,WeatherLink 5.4,2013-05-08 01:42:00,
2013-05-07 21:48:00,75.8,73.9,29.95,North,-999,0.0,0.0,94,0.00,,,-99.99,0,WeatherLink 5.4,2013-05-08 01:48:00,
2013-05-07 21:54:00,75.8,73.9,29.95,North,-999,0.0,0.0,94,0.00,,,-99.99,0,WeatherLink 5.4,2013-05-08 01:54:00,
2013-05-07 22:00:00,75.8,73.9,29.96,North,-999,0.0,0.0,94,0.00,,,-99.99,0,WeatherLink 5.4,2013-05-08 02:00:00,
2013-05-07 22:05:00,75.8,73.9,29.96,North,-999,0.0,0.0,94,0.00,,,-99.99,0,WeatherLink 5.4,2013-05-08 02:05:00,
2013-05-07 22:11:00,76.0,74.1,29.96,North,-999,0.0,0.0,94,0.00,,,-99.99,0,WeatherLink 5.4,2013-05-08 02:11:00,
2013-05-07 22:16:00,76.0,74.1,29.96,North,-999,0.0,0.0,94,0.00,,,-99.99,0,WeatherLink 5.4,2013-05-08 02:16:00,
2013-05-07 22:22:00,76.0,74.1,29.96,North,-999,0.0,0.0,94,0.00,,,-99.99,0,WeatherLink 5.4,2013-05-08 02:22:00,
2013-05-07 22:27:00,76.0,74.1,29.97,North,-999,0.0,0.0,94,0.00,,,-99.99,0,WeatherLink 5.4,2013-05-08 02:27:00,
2013-05-07 22:32:00,76.0,74.1,29.97,North,-999,0.0,0.0,94,0.00,,,-99.99,0,WeatherLink 5.4,2013-05-08 02:32:00,
2013-05-07 22:38:00,76.0,74.1,29.97,North,-999,0.0,0.0,94,0.00,,,-99.99,0,WeatherLink 5.4,2013-05-08 02:38:00,
2013-05-07 22:44:00,76.0,74.1,29.96,North,-999,0.0,0.0,94,0.00,,,-99.99,0,WeatherLink 5.4,2013-05-08 02:44:00,
2013-05-07 22:49:00,76.0,74.1,29.96,North,-999,0.0,0.0,94,0.00,,,-99.99,0,WeatherLink 5.4,2013-05-08 02:49:00,
2013-05-07 22:55:00,76.0,74.1,29.96,North,-999,0.0,0.0,94,0.00,,,-99.99,0,WeatherLink 5.4,2013-05-08 02:55:00,
2013-05-07 23:01:00,76.0,74.1,29.96,North,-999,0.0,0.0,94,0.00,,,-99.99,0,WeatherLink 5.4,2013-05-08 03:01:00,
2013-05-07 23:07:00,76.0,74.1,29.96,North,-999,0.0,0.0,94,0.00,,,-99.99,0,WeatherLink 5.4,2013-05-08 03:07:00,
2013-05-07 23:13:00,76.0,74.1,29.95,North,-999,0.0,0.0,94,0.00,,,-99.99,0,WeatherLink 5.4,2013-05-08 03:13:00,
2013-05-07 23:19:00,76.0,74.1,29.95,North,-999,0.0,0.0,94,0.00,,,-99.99,0,WeatherLink 5.4,2013-05-08 03:19:00,
2013-05-07 23:24:00,76.0,74.1,29.95,North,-999,0.0,0.0,94,0.00,,,-99.99,0,WeatherLink 5.4,2013-05-08 03:24:00,
2013-05-07 23:30:00,75.9,74.0,29.95,North,-999,0.0,0.0,94,0.00,,,-99.99,0,WeatherLink 5.4,2013-05-08 03:30:00,
2013-05-07 23:35:00,75.8,73.9,29.95,North,-999,0.0,0.0,94,0.00,,,-99.99,0,WeatherLink 5.4,2013-05-08 03:35:00,
2013-05-07 23:41:00,75.8,73.9,29.95,North,-999,0.0,0.0,94,0.00,,,-99.99,0,WeatherLink 5.4,2013-05-08 03:41:00,
2013-05-07 23:46:00,75.8,73.9,29.95,North,-999,0.0,0.0,94,0.00,,,-99.99,0,WeatherLink 5.4,2013-05-08 03:46:00,
2013-05-07 23:52:00,75.8,73.9,29.95,North,-999,0.0,0.0,94,0.00,,,-99.99,0,WeatherLink 5.4,2013-05-08 03:52:00,
2013-05-07 23:57:00,75.8,73.9,29.95,North,-999,0.0,0.0,94,0.00,,,-99.99,0,WeatherLink 5.4,2013-05-08 03:57:00,